sensor_id;sensor_type;location;lat;lon;timestamp;P1;durP1;ratioP1;P2;durP2;ratioP2
60478;SDS011;46321;48.398;11.754;2022-07-22T00:01:35;18.73;;;13.63;;
60478;SDS011;46321;48.398;11.754;2022-07-22T00:04:01;21.27;;;14.27;;
60478;SDS011;46321;48.398;11.754;2022-07-22T00:06:27;21.40;;;13.85;;
60478;SDS011;46321;48.398;11.754;2022-07-22T00:08:53;21.20;;;14.13;;
60478;SDS011;46321;48.398;11.754;2022-07-22T00:11:19;22.98;;;13.90;;
60478;SDS011;46321;48.398;11.754;2022-07-22T00:13:44;20.67;;;13.43;;
60478;SDS011;46321;48.398;11.754;2022-07-22T00:16:11;22.70;;;14.50;;
60478;SDS011;46321;48.398;11.754;2022-07-22T00:18:36;22.17;;;14.57;;
60478;SDS011;46321;48.398;11.754;2022-07-22T00:21:01;21.67;;;14.07;;
60478;SDS011;46321;48.398;11.754;2022-07-22T00:23:27;22.17;;;14.60;;
60478;SDS011;46321;48.398;11.754;2022-07-22T00:25:53;20.48;;;13.90;;
60478;SDS011;46321;48.398;11.754;2022-07-22T00:28:18;20.40;;;13.98;;
60478;SDS011;46321;48.398;11.754;2022-07-22T00:30:44;20.95;;;13.48;;
60478;SDS011;46321;48.398;11.754;2022-07-22T00:33:09;21.13;;;14.03;;
60478;SDS011;46321;48.398;11.754;2022-07-22T00:35:34;20.40;;;13.53;;
60478;SDS011;46321;48.398;11.754;2022-07-22T00:37:59;19.90;;;13.70;;
60478;SDS011;46321;48.398;11.754;2022-07-22T00:40:25;24.13;;;13.40;;
60478;SDS011;46321;48.398;11.754;2022-07-22T00:42:50;20.97;;;13.97;;
60478;SDS011;46321;48.398;11.754;2022-07-22T00:45:16;23.40;;;14.43;;
60478;SDS011;46321;48.398;11.754;2022-07-22T00:47:41;20.60;;;13.70;;
60478;SDS011;46321;48.398;11.754;2022-07-22T00:50:06;20.70;;;13.55;;
60478;SDS011;46321;48.398;11.754;2022-07-22T00:52:32;21.33;;;14.40;;
60478;SDS011;46321;48.398;11.754;2022-07-22T00:54:59;20.80;;;14.25;;
60478;SDS011;46321;48.398;11.754;2022-07-22T00:57:25;20.58;;;14.20;;
60478;SDS011;46321;48.398;11.754;2022-07-22T00:59:51;21.73;;;13.65;;
60478;SDS011;46321;48.398;11.754;2022-07-22T01:02:17;22.65;;;14.48;;
60478;SDS011;46321;48.398;11.754;2022-07-22T01:04:42;24.35;;;14.50;;
60478;SDS011;46321;48.398;11.754;2022-07-22T01:07:08;21.67;;;14.27;;
60478;SDS011;46321;48.398;11.754;2022-07-22T01:09:33;21.13;;;13.98;;
60478;SDS011;46321;48.398;11.754;2022-07-22T01:11:58;22.55;;;13.43;;
60478;SDS011;46321;48.398;11.754;2022-07-22T01:14:24;21.13;;;13.50;;
60478;SDS011;46321;48.398;11.754;2022-07-22T01:16:49;22.03;;;13.87;;
60478;SDS011;46321;48.398;11.754;2022-07-22T01:19:14;21.47;;;13.50;;
60478;SDS011;46321;48.398;11.754;2022-07-22T01:21:40;23.77;;;14.52;;
60478;SDS011;46321;48.398;11.754;2022-07-22T01:24:05;21.23;;;13.98;;
60478;SDS011;46321;48.398;11.754;2022-07-22T01:26:31;20.35;;;13.30;;
60478;SDS011;46321;48.398;11.754;2022-07-22T01:28:58;23.10;;;13.63;;
60478;SDS011;46321;48.398;11.754;2022-07-22T01:31:23;21.98;;;13.82;;
60478;SDS011;46321;48.398;11.754;2022-07-22T01:33:48;22.83;;;15.02;;
60478;SDS011;46321;48.398;11.754;2022-07-22T01:36:14;22.10;;;14.40;;
60478;SDS011;46321;48.398;11.754;2022-07-22T01:38:39;20.50;;;13.73;;
60478;SDS011;46321;48.398;11.754;2022-07-22T01:41:05;22.92;;;14.57;;
60478;SDS011;46321;48.398;11.754;2022-07-22T01:43:30;21.50;;;14.40;;
60478;SDS011;46321;48.398;11.754;2022-07-22T01:45:56;24.85;;;15.25;;
60478;SDS011;46321;48.398;11.754;2022-07-22T01:48:21;19.80;;;13.63;;
60478;SDS011;46321;48.398;11.754;2022-07-22T01:50:48;22.35;;;13.48;;
60478;SDS011;46321;48.398;11.754;2022-07-22T01:53:14;24.70;;;14.45;;
60478;SDS011;46321;48.398;11.754;2022-07-22T01:55:39;21.02;;;13.20;;
60478;SDS011;46321;48.398;11.754;2022-07-22T01:58:05;21.55;;;14.07;;
60478;SDS011;46321;48.398;11.754;2022-07-22T02:00:31;19.38;;;12.73;;
60478;SDS011;46321;48.398;11.754;2022-07-22T02:02:57;17.52;;;12.57;;
60478;SDS011;46321;48.398;11.754;2022-07-22T02:05:22;23.88;;;14.40;;
60478;SDS011;46321;48.398;11.754;2022-07-22T02:07:48;21.38;;;13.70;;
60478;SDS011;46321;48.398;11.754;2022-07-22T02:10:13;24.80;;;14.02;;
60478;SDS011;46321;48.398;11.754;2022-07-22T02:12:38;18.55;;;13.25;;
60478;SDS011;46321;48.398;11.754;2022-07-22T02:15:04;22.10;;;14.07;;
60478;SDS011;46321;48.398;11.754;2022-07-22T02:17:30;19.52;;;13.05;;
60478;SDS011;46321;48.398;11.754;2022-07-22T02:19:57;22.67;;;12.65;;
60478;SDS011;46321;48.398;11.754;2022-07-22T02:22:22;21.35;;;13.73;;
60478;SDS011;46321;48.398;11.754;2022-07-22T02:24:48;20.00;;;12.52;;
60478;SDS011;46321;48.398;11.754;2022-07-22T02:27:13;22.43;;;14.00;;
60478;SDS011;46321;48.398;11.754;2022-07-22T02:29:38;23.10;;;13.55;;
60478;SDS011;46321;48.398;11.754;2022-07-22T02:32:04;23.75;;;13.98;;
60478;SDS011;46321;48.398;11.754;2022-07-22T02:34:29;17.73;;;11.68;;
60478;SDS011;46321;48.398;11.754;2022-07-22T02:36:54;19.95;;;13.38;;
60478;SDS011;46321;48.398;11.754;2022-07-22T02:39:20;19.63;;;12.80;;
60478;SDS011;46321;48.398;11.754;2022-07-22T02:41:45;19.30;;;13.23;;
60478;SDS011;46321;48.398;11.754;2022-07-22T02:44:11;19.63;;;12.40;;
60478;SDS011;46321;48.398;11.754;2022-07-22T02:46:36;22.43;;;14.33;;
60478;SDS011;46321;48.398;11.754;2022-07-22T02:49:01;21.73;;;13.80;;
60478;SDS011;46321;48.398;11.754;2022-07-22T02:51:27;24.00;;;14.57;;
60478;SDS011;46321;48.398;11.754;2022-07-22T02:53:52;20.00;;;13.40;;
60478;SDS011;46321;48.398;11.754;2022-07-22T02:56:18;24.80;;;14.17;;
60478;SDS011;46321;48.398;11.754;2022-07-22T02:58:44;23.27;;;14.57;;
60478;SDS011;46321;48.398;11.754;2022-07-22T03:01:11;20.65;;;13.77;;
60478;SDS011;46321;48.398;11.754;2022-07-22T03:03:37;22.92;;;14.32;;
60478;SDS011;46321;48.398;11.754;2022-07-22T03:06:03;20.60;;;13.75;;
60478;SDS011;46321;48.398;11.754;2022-07-22T03:08:28;24.83;;;14.60;;
60478;SDS011;46321;48.398;11.754;2022-07-22T03:10:53;23.63;;;14.57;;
60478;SDS011;46321;48.398;11.754;2022-07-22T03:13:19;22.45;;;14.68;;
60478;SDS011;46321;48.398;11.754;2022-07-22T03:15:44;21.13;;;13.75;;
60478;SDS011;46321;48.398;11.754;2022-07-22T03:18:09;21.48;;;14.18;;
60478;SDS011;46321;48.398;11.754;2022-07-22T03:20:34;23.95;;;15.00;;
60478;SDS011;46321;48.398;11.754;2022-07-22T03:23:00;22.90;;;14.95;;
60478;SDS011;46321;48.398;11.754;2022-07-22T03:25:25;24.48;;;16.05;;
60478;SDS011;46321;48.398;11.754;2022-07-22T03:27:51;27.08;;;16.30;;
60478;SDS011;46321;48.398;11.754;2022-07-22T03:30:16;28.80;;;16.63;;
60478;SDS011;46321;48.398;11.754;2022-07-22T03:32:41;27.42;;;17.08;;
60478;SDS011;46321;48.398;11.754;2022-07-22T03:35:11;25.42;;;16.75;;
60478;SDS011;46321;48.398;11.754;2022-07-22T03:37:37;23.98;;;15.50;;
60478;SDS011;46321;48.398;11.754;2022-07-22T03:40:03;26.40;;;16.40;;
60478;SDS011;46321;48.398;11.754;2022-07-22T03:42:29;27.38;;;15.63;;
60478;SDS011;46321;48.398;11.754;2022-07-22T03:44:54;24.47;;;14.83;;
60478;SDS011;46321;48.398;11.754;2022-07-22T03:47:20;24.73;;;16.27;;
60478;SDS011;46321;48.398;11.754;2022-07-22T03:49:47;24.20;;;14.95;;
60478;SDS011;46321;48.398;11.754;2022-07-22T03:52:13;25.67;;;16.23;;
60478;SDS011;46321;48.398;11.754;2022-07-22T03:54:38;30.45;;;17.42;;
60478;SDS011;46321;48.398;11.754;2022-07-22T03:57:04;29.05;;;17.48;;
60478;SDS011;46321;48.398;11.754;2022-07-22T03:59:29;25.95;;;15.95;;
60478;SDS011;46321;48.398;11.754;2022-07-22T04:01:55;27.10;;;16.40;;
60478;SDS011;46321;48.398;11.754;2022-07-22T04:04:20;28.43;;;16.63;;
60478;SDS011;46321;48.398;11.754;2022-07-22T04:06:45;30.40;;;17.37;;
60478;SDS011;46321;48.398;11.754;2022-07-22T04:09:10;29.83;;;17.35;;
60478;SDS011;46321;48.398;11.754;2022-07-22T04:11:36;27.63;;;17.00;;
60478;SDS011;46321;48.398;11.754;2022-07-22T04:14:02;25.85;;;16.23;;
60478;SDS011;46321;48.398;11.754;2022-07-22T04:16:27;28.57;;;17.43;;
60478;SDS011;46321;48.398;11.754;2022-07-22T04:18:53;24.75;;;15.77;;
60478;SDS011;46321;48.398;11.754;2022-07-22T04:21:18;27.27;;;17.13;;
60478;SDS011;46321;48.398;11.754;2022-07-22T04:23:43;31.93;;;18.10;;
60478;SDS011;46321;48.398;11.754;2022-07-22T04:26:08;29.55;;;17.88;;
60478;SDS011;46321;48.398;11.754;2022-07-22T04:28:34;26.83;;;17.42;;
60478;SDS011;46321;48.398;11.754;2022-07-22T04:31:00;31.00;;;17.55;;
60478;SDS011;46321;48.398;11.754;2022-07-22T04:33:27;27.75;;;17.38;;
60478;SDS011;46321;48.398;11.754;2022-07-22T04:35:52;28.52;;;17.50;;
60478;SDS011;46321;48.398;11.754;2022-07-22T04:38:17;29.83;;;18.38;;
60478;SDS011;46321;48.398;11.754;2022-07-22T04:40:43;26.58;;;16.95;;
60478;SDS011;46321;48.398;11.754;2022-07-22T04:43:08;29.85;;;18.38;;
60478;SDS011;46321;48.398;11.754;2022-07-22T04:45:33;32.03;;;18.48;;
60478;SDS011;46321;48.398;11.754;2022-07-22T04:47:59;29.75;;;19.23;;
60478;SDS011;46321;48.398;11.754;2022-07-22T04:50:24;34.20;;;20.42;;
60478;SDS011;46321;48.398;11.754;2022-07-22T04:52:49;33.60;;;19.13;;
60478;SDS011;46321;48.398;11.754;2022-07-22T04:55:14;30.70;;;19.40;;
60478;SDS011;46321;48.398;11.754;2022-07-22T04:57:40;34.17;;;20.67;;
60478;SDS011;46321;48.398;11.754;2022-07-22T05:00:05;34.15;;;20.30;;
60478;SDS011;46321;48.398;11.754;2022-07-22T05:02:31;34.72;;;21.35;;
60478;SDS011;46321;48.398;11.754;2022-07-22T05:04:58;27.40;;;17.95;;
60478;SDS011;46321;48.398;11.754;2022-07-22T05:07:23;29.42;;;16.50;;
60478;SDS011;46321;48.398;11.754;2022-07-22T05:09:49;24.88;;;15.45;;
60478;SDS011;46321;48.398;11.754;2022-07-22T05:12:14;26.08;;;14.80;;
60478;SDS011;46321;48.398;11.754;2022-07-22T05:14:39;23.77;;;15.88;;
60478;SDS011;46321;48.398;11.754;2022-07-22T05:17:08;25.92;;;15.63;;
60478;SDS011;46321;48.398;11.754;2022-07-22T05:19:37;24.83;;;15.45;;
60478;SDS011;46321;48.398;11.754;2022-07-22T05:22:03;31.45;;;19.92;;
60478;SDS011;46321;48.398;11.754;2022-07-22T05:24:28;33.05;;;21.25;;
60478;SDS011;46321;48.398;11.754;2022-07-22T05:26:54;24.65;;;15.73;;
60478;SDS011;46321;48.398;11.754;2022-07-22T05:29:19;24.60;;;15.50;;
60478;SDS011;46321;48.398;11.754;2022-07-22T05:31:44;23.88;;;15.75;;
60478;SDS011;46321;48.398;11.754;2022-07-22T05:34:10;23.77;;;15.32;;
60478;SDS011;46321;48.398;11.754;2022-07-22T05:36:35;26.10;;;16.27;;
60478;SDS011;46321;48.398;11.754;2022-07-22T05:39:00;23.63;;;14.50;;
60478;SDS011;46321;48.398;11.754;2022-07-22T05:41:25;23.48;;;14.95;;
60478;SDS011;46321;48.398;11.754;2022-07-22T05:43:51;26.57;;;15.53;;
60478;SDS011;46321;48.398;11.754;2022-07-22T05:46:16;24.15;;;16.10;;
60478;SDS011;46321;48.398;11.754;2022-07-22T05:48:41;22.90;;;14.60;;
60478;SDS011;46321;48.398;11.754;2022-07-22T05:51:10;29.60;;;15.73;;
60478;SDS011;46321;48.398;11.754;2022-07-22T05:53:37;24.75;;;15.48;;
60478;SDS011;46321;48.398;11.754;2022-07-22T05:56:03;23.35;;;14.80;;
60478;SDS011;46321;48.398;11.754;2022-07-22T05:58:28;22.05;;;14.95;;
60478;SDS011;46321;48.398;11.754;2022-07-22T06:00:53;28.33;;;16.95;;
60478;SDS011;46321;48.398;11.754;2022-07-22T06:03:19;26.75;;;16.48;;
60478;SDS011;46321;48.398;11.754;2022-07-22T06:05:44;26.23;;;16.30;;
60478;SDS011;46321;48.398;11.754;2022-07-22T06:08:10;28.38;;;17.38;;
60478;SDS011;46321;48.398;11.754;2022-07-22T06:10:35;25.50;;;16.35;;
60478;SDS011;46321;48.398;11.754;2022-07-22T06:13:00;23.60;;;15.57;;
60478;SDS011;46321;48.398;11.754;2022-07-22T06:15:26;24.83;;;16.13;;
60478;SDS011;46321;48.398;11.754;2022-07-22T06:17:51;20.52;;;14.32;;
60478;SDS011;46321;48.398;11.754;2022-07-22T06:20:16;22.80;;;15.43;;
60478;SDS011;46321;48.398;11.754;2022-07-22T06:22:41;24.58;;;14.82;;
60478;SDS011;46321;48.398;11.754;2022-07-22T06:25:07;24.05;;;14.48;;
60478;SDS011;46321;48.398;11.754;2022-07-22T06:27:33;23.38;;;14.20;;
60478;SDS011;46321;48.398;11.754;2022-07-22T06:29:58;23.90;;;15.65;;
60478;SDS011;46321;48.398;11.754;2022-07-22T06:32:24;22.90;;;15.60;;
60478;SDS011;46321;48.398;11.754;2022-07-22T06:34:49;23.97;;;15.40;;
60478;SDS011;46321;48.398;11.754;2022-07-22T06:37:14;23.93;;;14.97;;
60478;SDS011;46321;48.398;11.754;2022-07-22T06:39:39;30.02;;;19.20;;
60478;SDS011;46321;48.398;11.754;2022-07-22T06:42:05;30.90;;;20.02;;
60478;SDS011;46321;48.398;11.754;2022-07-22T06:44:30;25.52;;;15.68;;
60478;SDS011;46321;48.398;11.754;2022-07-22T06:46:55;21.27;;;13.87;;
60478;SDS011;46321;48.398;11.754;2022-07-22T06:49:20;24.97;;;13.90;;
60478;SDS011;46321;48.398;11.754;2022-07-22T06:51:46;20.48;;;14.43;;
60478;SDS011;46321;48.398;11.754;2022-07-22T06:54:11;21.13;;;13.90;;
60478;SDS011;46321;48.398;11.754;2022-07-22T06:56:37;19.57;;;13.40;;
60478;SDS011;46321;48.398;11.754;2022-07-22T06:59:02;19.33;;;12.83;;
60478;SDS011;46321;48.398;11.754;2022-07-22T07:01:27;22.17;;;14.03;;
60478;SDS011;46321;48.398;11.754;2022-07-22T07:03:53;22.17;;;13.57;;
60478;SDS011;46321;48.398;11.754;2022-07-22T07:06:18;18.83;;;13.07;;
60478;SDS011;46321;48.398;11.754;2022-07-22T07:08:43;21.23;;;13.33;;
60478;SDS011;46321;48.398;11.754;2022-07-22T07:11:08;22.23;;;13.95;;
60478;SDS011;46321;48.398;11.754;2022-07-22T07:13:34;21.15;;;12.52;;
60478;SDS011;46321;48.398;11.754;2022-07-22T07:15:59;20.77;;;13.30;;
60478;SDS011;46321;48.398;11.754;2022-07-22T07:18:25;20.85;;;12.77;;
60478;SDS011;46321;48.398;11.754;2022-07-22T07:20:50;19.95;;;12.73;;
60478;SDS011;46321;48.398;11.754;2022-07-22T07:23:15;20.35;;;12.50;;
60478;SDS011;46321;48.398;11.754;2022-07-22T07:25:41;21.03;;;12.30;;
60478;SDS011;46321;48.398;11.754;2022-07-22T07:28:07;16.52;;;12.48;;
60478;SDS011;46321;48.398;11.754;2022-07-22T07:30:32;17.85;;;12.07;;
60478;SDS011;46321;48.398;11.754;2022-07-22T07:32:58;18.30;;;11.13;;
60478;SDS011;46321;48.398;11.754;2022-07-22T07:35:25;17.95;;;12.02;;
60478;SDS011;46321;48.398;11.754;2022-07-22T07:37:50;17.38;;;12.43;;
60478;SDS011;46321;48.398;11.754;2022-07-22T07:40:16;18.07;;;11.60;;
60478;SDS011;46321;48.398;11.754;2022-07-22T07:42:41;17.00;;;11.50;;
60478;SDS011;46321;48.398;11.754;2022-07-22T07:45:06;18.10;;;10.97;;
60478;SDS011;46321;48.398;11.754;2022-07-22T07:47:32;16.50;;;12.10;;
60478;SDS011;46321;48.398;11.754;2022-07-22T07:49:57;18.20;;;11.43;;
60478;SDS011;46321;48.398;11.754;2022-07-22T07:52:25;15.20;;;11.13;;
60478;SDS011;46321;48.398;11.754;2022-07-22T07:54:50;16.27;;;10.18;;
60478;SDS011;46321;48.398;11.754;2022-07-22T07:57:16;13.48;;;9.80;;
60478;SDS011;46321;48.398;11.754;2022-07-22T07:59:41;14.55;;;9.68;;
60478;SDS011;46321;48.398;11.754;2022-07-22T08:02:06;18.07;;;11.83;;
60478;SDS011;46321;48.398;11.754;2022-07-22T08:04:32;18.70;;;12.15;;
60478;SDS011;46321;48.398;11.754;2022-07-22T08:06:59;14.50;;;11.38;;
60478;SDS011;46321;48.398;11.754;2022-07-22T08:09:25;11.77;;;8.63;;
60478;SDS011;46321;48.398;11.754;2022-07-22T08:11:50;14.43;;;9.53;;
60478;SDS011;46321;48.398;11.754;2022-07-22T08:14:16;13.18;;;9.25;;
60478;SDS011;46321;48.398;11.754;2022-07-22T08:16:42;12.23;;;8.55;;
60478;SDS011;46321;48.398;11.754;2022-07-22T08:19:07;11.77;;;7.87;;
60478;SDS011;46321;48.398;11.754;2022-07-22T08:21:32;12.38;;;7.95;;
60478;SDS011;46321;48.398;11.754;2022-07-22T08:23:58;11.48;;;8.43;;
60478;SDS011;46321;48.398;11.754;2022-07-22T08:26:23;10.75;;;7.63;;
60478;SDS011;46321;48.398;11.754;2022-07-22T08:28:49;12.98;;;8.73;;
60478;SDS011;46321;48.398;11.754;2022-07-22T08:31:14;12.17;;;8.13;;
60478;SDS011;46321;48.398;11.754;2022-07-22T08:33:39;8.70;;;7.60;;
60478;SDS011;46321;48.398;11.754;2022-07-22T08:36:05;11.73;;;8.60;;
60478;SDS011;46321;48.398;11.754;2022-07-22T08:38:31;15.27;;;10.38;;
60478;SDS011;46321;48.398;11.754;2022-07-22T08:40:56;11.82;;;9.13;;
60478;SDS011;46321;48.398;11.754;2022-07-22T08:43:23;15.02;;;8.65;;
60478;SDS011;46321;48.398;11.754;2022-07-22T08:45:49;13.40;;;8.60;;
60478;SDS011;46321;48.398;11.754;2022-07-22T08:48:15;12.35;;;8.57;;
60478;SDS011;46321;48.398;11.754;2022-07-22T08:50:41;13.25;;;9.32;;
60478;SDS011;46321;48.398;11.754;2022-07-22T08:53:12;13.23;;;9.00;;
60478;SDS011;46321;48.398;11.754;2022-07-22T08:55:44;13.30;;;8.27;;
60478;SDS011;46321;48.398;11.754;2022-07-22T08:58:11;10.73;;;8.32;;
60478;SDS011;46321;48.398;11.754;2022-07-22T09:00:36;12.10;;;8.65;;
60478;SDS011;46321;48.398;11.754;2022-07-22T09:03:15;13.40;;;9.00;;
60478;SDS011;46321;48.398;11.754;2022-07-22T09:08:10;13.47;;;8.40;;
60478;SDS011;46321;48.398;11.754;2022-07-22T09:10:36;10.27;;;7.63;;
60478;SDS011;46321;48.398;11.754;2022-07-22T09:13:02;11.60;;;7.20;;
60478;SDS011;46321;48.398;11.754;2022-07-22T09:15:33;10.32;;;7.80;;
60478;SDS011;46321;48.398;11.754;2022-07-22T09:18:04;9.82;;;7.47;;
60478;SDS011;46321;48.398;11.754;2022-07-22T09:20:31;9.18;;;6.78;;
60478;SDS011;46321;48.398;11.754;2022-07-22T09:22:58;14.85;;;8.05;;
60478;SDS011;46321;48.398;11.754;2022-07-22T09:27:54;9.60;;;7.15;;
60478;SDS011;46321;48.398;11.754;2022-07-22T09:30:37;9.50;;;8.27;;
60478;SDS011;46321;48.398;11.754;2022-07-22T09:33:13;12.32;;;7.70;;
60478;SDS011;46321;48.398;11.754;2022-07-22T09:35:39;10.43;;;7.13;;
60478;SDS011;46321;48.398;11.754;2022-07-22T09:38:05;10.20;;;7.22;;
60478;SDS011;46321;48.398;11.754;2022-07-22T09:40:36;9.65;;;6.90;;
60478;SDS011;46321;48.398;11.754;2022-07-22T09:43:13;7.13;;;6.40;;
60478;SDS011;46321;48.398;11.754;2022-07-22T09:45:48;8.63;;;6.72;;
60478;SDS011;46321;48.398;11.754;2022-07-22T09:48:20;7.78;;;6.35;;
60478;SDS011;46321;48.398;11.754;2022-07-22T09:50:47;7.10;;;6.40;;
60478;SDS011;46321;48.398;11.754;2022-07-22T09:53:14;9.75;;;6.80;;
60478;SDS011;46321;48.398;11.754;2022-07-22T09:55:41;9.75;;;7.18;;
60478;SDS011;46321;48.398;11.754;2022-07-22T09:58:06;10.52;;;7.22;;
60478;SDS011;46321;48.398;11.754;2022-07-22T10:00:33;8.18;;;6.93;;
60478;SDS011;46321;48.398;11.754;2022-07-22T10:03:00;9.77;;;6.80;;
60478;SDS011;46321;48.398;11.754;2022-07-22T10:05:28;9.57;;;6.50;;
60478;SDS011;46321;48.398;11.754;2022-07-22T10:07:55;9.43;;;6.65;;
60478;SDS011;46321;48.398;11.754;2022-07-22T10:10:24;9.00;;;6.55;;
60478;SDS011;46321;48.398;11.754;2022-07-22T10:12:52;15.27;;;7.38;;
60478;SDS011;46321;48.398;11.754;2022-07-22T10:15:19;8.30;;;6.63;;
60478;SDS011;46321;48.398;11.754;2022-07-22T10:17:46;7.00;;;6.18;;
60478;SDS011;46321;48.398;11.754;2022-07-22T10:20:13;8.32;;;6.50;;
60478;SDS011;46321;48.398;11.754;2022-07-22T10:25:11;7.80;;;6.10;;
60478;SDS011;46321;48.398;11.754;2022-07-22T10:32:37;11.20;;;6.18;;
60478;SDS011;46321;48.398;11.754;2022-07-22T10:43:10;6.90;;;6.20;;
60478;SDS011;46321;48.398;11.754;2022-07-22T10:45:38;9.70;;;6.88;;
60478;SDS011;46321;48.398;11.754;2022-07-22T10:48:15;7.13;;;5.88;;
60478;SDS011;46321;48.398;11.754;2022-07-22T10:50:46;7.93;;;5.53;;
60478;SDS011;46321;48.398;11.754;2022-07-22T10:54:00;9.07;;;5.93;;
60478;SDS011;46321;48.398;11.754;2022-07-22T10:56:18;9.50;;;5.10;;
60478;SDS011;46321;48.398;11.754;2022-07-22T11:01:35;8.00;;;5.32;;
60478;SDS011;46321;48.398;11.754;2022-07-22T11:04:34;6.85;;;5.80;;
60478;SDS011;46321;48.398;11.754;2022-07-22T11:06:54;9.93;;;5.50;;
60478;SDS011;46321;48.398;11.754;2022-07-22T11:09:23;11.43;;;5.57;;
60478;SDS011;46321;48.398;11.754;2022-07-22T11:11:58;9.07;;;6.93;;
60478;SDS011;46321;48.398;11.754;2022-07-22T11:14:25;5.93;;;4.82;;
60478;SDS011;46321;48.398;11.754;2022-07-22T11:16:54;6.00;;;4.72;;
60478;SDS011;46321;48.398;11.754;2022-07-22T11:19:25;5.22;;;4.60;;
60478;SDS011;46321;48.398;11.754;2022-07-22T11:21:59;7.03;;;5.20;;
60478;SDS011;46321;48.398;11.754;2022-07-22T11:24:29;7.70;;;5.35;;
60478;SDS011;46321;48.398;11.754;2022-07-22T11:26:55;5.40;;;4.75;;
60478;SDS011;46321;48.398;11.754;2022-07-22T11:29:27;6.47;;;4.78;;
60478;SDS011;46321;48.398;11.754;2022-07-22T11:31:55;6.55;;;5.50;;
60478;SDS011;46321;48.398;11.754;2022-07-22T11:34:22;9.93;;;5.57;;
60478;SDS011;46321;48.398;11.754;2022-07-22T11:36:48;6.30;;;5.70;;
60478;SDS011;46321;48.398;11.754;2022-07-22T11:39:16;6.85;;;5.72;;
60478;SDS011;46321;48.398;11.754;2022-07-22T11:41:44;6.65;;;5.68;;
60478;SDS011;46321;48.398;11.754;2022-07-22T11:44:09;6.35;;;5.50;;
60478;SDS011;46321;48.398;11.754;2022-07-22T11:46:39;9.13;;;5.93;;
60478;SDS011;46321;48.398;11.754;2022-07-22T11:49:06;8.68;;;6.25;;
60478;SDS011;46321;48.398;11.754;2022-07-22T11:51:33;6.53;;;5.85;;
60478;SDS011;46321;48.398;11.754;2022-07-22T11:54:00;6.82;;;5.80;;
60478;SDS011;46321;48.398;11.754;2022-07-22T11:56:26;7.20;;;6.07;;
60478;SDS011;46321;48.398;11.754;2022-07-22T11:58:52;8.98;;;6.07;;
60478;SDS011;46321;48.398;11.754;2022-07-22T12:01:25;7.20;;;5.93;;
60478;SDS011;46321;48.398;11.754;2022-07-22T12:03:53;9.35;;;6.80;;
60478;SDS011;46321;48.398;11.754;2022-07-22T12:06:21;7.78;;;6.30;;
60478;SDS011;46321;48.398;11.754;2022-07-22T12:08:48;8.40;;;6.28;;
60478;SDS011;46321;48.398;11.754;2022-07-22T12:11:16;7.45;;;6.30;;
60478;SDS011;46321;48.398;11.754;2022-07-22T12:13:43;9.35;;;6.43;;
60478;SDS011;46321;48.398;11.754;2022-07-22T12:16:20;7.70;;;6.80;;
60478;SDS011;46321;48.398;11.754;2022-07-22T12:18:53;8.55;;;6.65;;
60478;SDS011;46321;48.398;11.754;2022-07-22T12:21:24;10.57;;;6.80;;
60478;SDS011;46321;48.398;11.754;2022-07-22T12:23:55;7.53;;;5.90;;
60478;SDS011;46321;48.398;11.754;2022-07-22T12:26:42;7.50;;;6.50;;
60478;SDS011;46321;48.398;11.754;2022-07-22T12:29:22;8.27;;;6.72;;
60478;SDS011;46321;48.398;11.754;2022-07-22T12:31:59;10.38;;;6.30;;
60478;SDS011;46321;48.398;11.754;2022-07-22T12:39:39;8.32;;;6.65;;
60478;SDS011;46321;48.398;11.754;2022-07-22T12:42:16;7.63;;;6.63;;
60478;SDS011;46321;48.398;11.754;2022-07-22T12:44:50;8.77;;;6.65;;
60478;SDS011;46321;48.398;11.754;2022-07-22T12:47:17;8.55;;;6.30;;
60478;SDS011;46321;48.398;11.754;2022-07-22T12:49:42;7.80;;;6.88;;
60478;SDS011;46321;48.398;11.754;2022-07-22T12:52:09;6.95;;;5.90;;
60478;SDS011;46321;48.398;11.754;2022-07-22T12:54:36;9.00;;;6.60;;
60478;SDS011;46321;48.398;11.754;2022-07-22T12:57:03;7.18;;;6.35;;
60478;SDS011;46321;48.398;11.754;2022-07-22T12:59:30;8.35;;;6.40;;
60478;SDS011;46321;48.398;11.754;2022-07-22T13:01:55;9.93;;;6.35;;
60478;SDS011;46321;48.398;11.754;2022-07-22T13:04:21;7.07;;;6.10;;
60478;SDS011;46321;48.398;11.754;2022-07-22T13:06:46;10.10;;;6.30;;
60478;SDS011;46321;48.398;11.754;2022-07-22T13:09:12;8.90;;;6.40;;
60478;SDS011;46321;48.398;11.754;2022-07-22T13:11:37;10.60;;;6.47;;
60478;SDS011;46321;48.398;11.754;2022-07-22T13:14:08;8.10;;;6.90;;
60478;SDS011;46321;48.398;11.754;2022-07-22T13:16:33;8.77;;;6.68;;
60478;SDS011;46321;48.398;11.754;2022-07-22T13:18:58;8.07;;;6.10;;
60478;SDS011;46321;48.398;11.754;2022-07-22T13:21:24;9.70;;;6.30;;
60478;SDS011;46321;48.398;11.754;2022-07-22T13:23:49;8.30;;;6.85;;
60478;SDS011;46321;48.398;11.754;2022-07-22T13:26:14;9.82;;;6.22;;
60478;SDS011;46321;48.398;11.754;2022-07-22T13:28:40;10.48;;;6.38;;
60478;SDS011;46321;48.398;11.754;2022-07-22T13:31:05;8.13;;;6.10;;
60478;SDS011;46321;48.398;11.754;2022-07-22T13:33:30;7.07;;;6.30;;
60478;SDS011;46321;48.398;11.754;2022-07-22T13:38:26;8.18;;;5.80;;
60478;SDS011;46321;48.398;11.754;2022-07-22T13:40:51;6.50;;;5.80;;
60478;SDS011;46321;48.398;11.754;2022-07-22T13:43:17;8.25;;;5.70;;
60478;SDS011;46321;48.398;11.754;2022-07-22T13:45:43;7.85;;;6.38;;
60478;SDS011;46321;48.398;11.754;2022-07-22T13:48:09;9.63;;;5.95;;
60478;SDS011;46321;48.398;11.754;2022-07-22T13:50:34;7.55;;;6.18;;
60478;SDS011;46321;48.398;11.754;2022-07-22T13:52:59;6.23;;;5.63;;
60478;SDS011;46321;48.398;11.754;2022-07-22T13:55:25;7.73;;;6.03;;
60478;SDS011;46321;48.398;11.754;2022-07-22T13:57:50;9.93;;;6.47;;
60478;SDS011;46321;48.398;11.754;2022-07-22T14:00:16;9.15;;;6.47;;
60478;SDS011;46321;48.398;11.754;2022-07-22T14:02:43;7.13;;;6.43;;
60478;SDS011;46321;48.398;11.754;2022-07-22T14:05:09;8.13;;;6.47;;
60478;SDS011;46321;48.398;11.754;2022-07-22T14:07:34;7.50;;;6.30;;
60478;SDS011;46321;48.398;11.754;2022-07-22T14:10:00;6.53;;;5.93;;
60478;SDS011;46321;48.398;11.754;2022-07-22T14:12:25;6.90;;;5.60;;
60478;SDS011;46321;48.398;11.754;2022-07-22T14:14:50;8.35;;;5.68;;
60478;SDS011;46321;48.398;11.754;2022-07-22T14:17:16;10.73;;;6.00;;
60478;SDS011;46321;48.398;11.754;2022-07-22T14:19:41;7.70;;;6.00;;
60478;SDS011;46321;48.398;11.754;2022-07-22T14:22:06;7.00;;;5.67;;
60478;SDS011;46321;48.398;11.754;2022-07-22T14:24:31;8.20;;;6.20;;
60478;SDS011;46321;48.398;11.754;2022-07-22T14:26:57;8.57;;;6.30;;
60478;SDS011;46321;48.398;11.754;2022-07-22T14:29:23;8.90;;;6.90;;
60478;SDS011;46321;48.398;11.754;2022-07-22T14:31:49;7.70;;;6.50;;
60478;SDS011;46321;48.398;11.754;2022-07-22T14:34:14;7.78;;;6.45;;
60478;SDS011;46321;48.398;11.754;2022-07-22T14:36:40;6.80;;;6.10;;
60478;SDS011;46321;48.398;11.754;2022-07-22T14:39:05;12.80;;;6.70;;
60478;SDS011;46321;48.398;11.754;2022-07-22T14:41:30;8.30;;;6.40;;
60478;SDS011;46321;48.398;11.754;2022-07-22T14:43:56;7.63;;;6.07;;
60478;SDS011;46321;48.398;11.754;2022-07-22T14:46:21;8.00;;;6.30;;